Terminal Aerodrome Forecast
Issued by NWS Newport/Morehead City, NC

Home | Current Version | Previous Version | Graphics & Text | Print | Product List | Glossary On
Versions: 1 2 3 4 5 6 7 8 9 10 11 12 13 14 15 16 17 18 19
003
FTUS42 KMHX 061159 CCA
TAFEWN
TAF COR
KEWN 061159Z 0612/0712 09010G15KT 5SM -RA SCT006 OVC025
     FM061230 09011G17KT 3SM RA OVC006
     FM061900 12011G17KT P6SM VCSH SCT003 OVC005
     FM062100 26010KT P6SM SCT003 BKN007
     FM070800 31004KT 5SM BR SCT003 BKN007=

USA.gov is the U.S. government's official web portal to all federal, state and local government web resources and services.